Vizconde de Eza — EAXB — position and weather

sailwx.info

Track history (hours):
 
Tides and Currents Weather Stations Pressure Air Temp Water Temp Dewpoint Dewpoint Depression Visibility Wind Speed Wind Dir Waves Ship Positions

Oceanographic research ship Vizconde de Eza (Spain)

Detailed information on ship capabilities available from University of Delaware's Ocean Information Center.

Last reported at 2014-Nov-23 22:33 UTC. Time now 2014-Nov-23 23:56 UTC.
Position N 38°23' E 001°26'.

Length 53 m; draft 6.2 m.

Type: Other ship. MMSI: 224582000.

Date/timePositionNaut miles runAvg speedWind from/ knotsBaromVisibWave heightAir tempDewpointWater temp
2014-Nov-23 22:33N 38°23' E 001°26'3 3.5
2014-Nov-23 21:33N 38°27' E 001°27'2 2.2
2014-Nov-23 20:33N 38°24' E 001°27'1 1.0
2014-Nov-23 19:18N 38°25' E 001°28'2 2.7
2014-Nov-23 18:33N 38°26' E 001°30'0 0.2
2014-Nov-23 16:31N 38°26' E 001°30'3 1.2
2014-Nov-23 14:30N 38°24' E 001°30'4 3.9
2014-Nov-23 13:33N 38°26' E 001°34'6 5.6
2014-Nov-23 12:33N 38°21' E 001°31'4 4.2
2014-Nov-23 11:30N 38°25' E 001°33'1 1.4
2014-Nov-23 10:32N 38°24' E 001°34'2 2.4
2014-Nov-23 09:33N 38°22' E 001°33'12 4.1
2014-Nov-23 06:29N 38°23' E 001°49'5 5.1
2014-Nov-23 05:33N 38°25' E 001°43'1 0.3
2014-Nov-23 00:33N 38°23' E 001°43'5 5.2
2014-Nov-22 23:33N 38°25' E 001°36'2 1.8
2014-Nov-22 22:33N 38°23' E 001°37'7 5.5
2014-Nov-22 21:15N 38°21' E 001°46'1 1.3
2014-Nov-22 20:33N 38°21' E 001°47'2 0.4
2014-Nov-22 16:25N 38°20' E 001°45'2 2.0
2014-Nov-22 15:33N 38°20' E 001°47'5 5.0
2014-Nov-22 14:33N 38°21' E 001°41'5 5.2
2014-Nov-22 13:33N 38°23' E 001°35'2 1.8
2014-Nov-22 12:33N 38°21' E 001°36'5 5.5
2014-Nov-22 11:33N 38°19' E 001°42'4 4.3
2014-Nov-22 10:33N 38°18' E 001°48'5 5.3
2014-Nov-22 09:33N 38°20' E 001°41'5 5.2
2014-Nov-22 08:33N 38°21' E 001°35'5 5.3
2014-Nov-22 07:32N 38°23' E 001°28'5 5.1
2014-Nov-22 06:33N 38°24' E 001°22'3 3.4
2014-Nov-22 05:33N 38°22' E 001°25'5 5.4
2014-Nov-22 04:33N 38°20' E 001°32'5 5.4
2014-Nov-22 03:33N 38°19' E 001°39'1 1.2
2014-Nov-22 02:33N 38°19' E 001°37'5 4.9
2014-Nov-22 01:33N 38°21' E 001°31'5 5.0
2014-Nov-22 00:33N 38°22' E 001°25'2 1.6
2014-Nov-21 23:33N 38°20' E 001°26'8 5.4
2014-Nov-21 22:09N 38°18' E 001°35'2 3.6
2014-Nov-21 21:33N 38°19' E 001°32'6 5.5
2014-Nov-21 20:33N 38°21' E 001°26'1 1.4
2014-Nov-21 19:33N 38°19' E 001°24'3 3.2
2014-Nov-21 18:33N 38°18' E 001°28'5 5.4
2014-Nov-21 17:33N 38°20' E 001°22'3 2.6
2014-Nov-21 16:32N 38°22' E 001°24'1 1.0
2014-Nov-21 15:33N 38°21' E 001°23'3 3.3
2014-Nov-21 14:33N 38°19' E 001°20'6 5.5
2014-Nov-21 13:33N 38°24' E 001°23'5 4.8
2014-Nov-21 12:32N 38°20' E 001°20'1 1.1
2014-Nov-21 11:33N 38°20' E 001°19'3 2.9
2014-Nov-21 10:32N 38°23' E 001°21'5 5.5
2014-Nov-21 09:33N 38°18' E 001°18'2 0.8
2014-Nov-21 07:18N 38°20' E 001°18'3 1.3
2014-Nov-21 05:19N 38°22' E 001°17'5 2.5
2014-Nov-21 03:27N 38°19' E 001°14'4 3.1
2014-Nov-21 02:07N 38°21' E 001°18'2 0.4
2014-Nov-20 21:31N 38°22' E 001°16'1 1.1
2014-Nov-20 20:28N 38°23' E 001°16'1 0.0
2014-Nov-19 22:05N 38°22' E 001°15'4 4.9
2014-Nov-19 21:20N 38°26' E 001°13'2 0.6
2014-Nov-19 18:17N 38°27' E 001°12'7 3.4
2014-Nov-19 16:14N 38°29' E 001°20'2 0.6
2014-Nov-19 13:24N 38°31' E 001°19'4 2.0
2014-Nov-19 11:33N 38°29' E 001°23'2 0.4
2014-Nov-19 06:22N 38°31' E 001°21'5 0.7
2014-Nov-18 22:21N 38°33' E 001°15'7 1.3
2014-Nov-18 16:33N 38°31' E 001°24'12 1.6
2014-Nov-18 09:19N 38°35' E 001°38'3 4.1
2014-Nov-18 08:32N 38°33' E 001°35'5 5.5
2014-Nov-18 07:33N 38°29' E 001°30'9 2.7
2014-Nov-18 04:08N 38°36' E 001°38'13 0.4
2014-Nov-16 15:33N 38°46' E 001°49'9 8.6
2014-Nov-16 14:33N 38°51' E 001°57'9 8.6
2014-Nov-16 13:33N 38°57' E 002°05'8 8.3
2014-Nov-16 12:33N 39°03' E 002°12'8 7.8
2014-Nov-16 11:34N 39°09' E 002°19'8 7.6
2014-Nov-16 10:33N 39°15' E 002°25'8 7.6
2014-Nov-16 09:33N 39°22' E 002°30'9 8.8
2014-Nov-16 08:33N 39°29' E 002°36'4 4.0
2014-Nov-16 07:28N 39°33' E 002°38'0 0.0
2014-Nov-16 06:31N 39°33' E 002°38'0 0.0
2014-Nov-16 05:31N 39°33' E 002°38'0 0.0
2014-Nov-16 04:31N 39°33' E 002°38'0 0.0
2014-Nov-16 03:31N 39°33' E 002°38'0 0.0
2014-Nov-16 02:31N 39°33' E 002°38'0 0.0
2014-Nov-16 01:31N 39°33' E 002°38'0 0.0
2014-Nov-16 00:31N 39°33' E 002°38'0 0.0
2014-Nov-15 23:31N 39°33' E 002°38'0 0.0
2014-Nov-15 22:31N 39°33' E 002°38'0 0.0
2014-Nov-15 21:31N 39°33' E 002°38'0 0.0
2014-Nov-15 20:31N 39°33' E 002°38'0 0.0
2014-Nov-15 19:31N 39°33' E 002°38'0 0.0
2014-Nov-15 18:31N 39°33' E 002°38'0 0.0
2014-Nov-15 17:31N 39°33' E 002°38'0 0.0
2014-Nov-15 16:31N 39°33' E 002°38'0 0.0
2014-Nov-15 15:31N 39°33' E 002°38'0 0.0
2014-Nov-15 14:31N 39°33' E 002°38'0 0.0
2014-Nov-15 13:31N 39°33' E 002°38'0 0.0
2014-Nov-15 12:31N 39°33' E 002°38'0 0.0
2014-Nov-15 11:31N 39°33' E 002°38'0 0.0
2014-Nov-15 10:31N 39°33' E 002°38'0 0.0
2014-Nov-15 09:31N 39°33' E 002°38'0 0.0
2014-Nov-15 08:31N 39°33' E 002°38'0 0.0
2014-Nov-15 07:22N 39°33' E 002°38'0 0.0
2014-Nov-15 06:28N 39°33' E 002°38'0 0.0
2014-Nov-15 05:31N 39°33' E 002°38'0 0.0
2014-Nov-15 04:31N 39°33' E 002°38'0 0.0
2014-Nov-15 03:31N 39°33' E 002°38'0 0.0
2014-Nov-15 02:31N 39°33' E 002°38'0 0.0
2014-Nov-15 01:31N 39°33' E 002°38'0 0.0
2014-Nov-15 00:31N 39°33' E 002°38'0 0.0
2014-Nov-14 23:31N 39°33' E 002°38'0 0.0
2014-Nov-14 22:31N 39°33' E 002°38'0 0.0
2014-Nov-14 21:31N 39°33' E 002°38'0 0.0
2014-Nov-14 20:31N 39°33' E 002°38'0 0.0
2014-Nov-14 19:31N 39°33' E 002°38'0 0.0
2014-Nov-14 18:31N 39°33' E 002°38'0 0.0
2014-Nov-14 17:31N 39°33' E 002°38'0 0.0
2014-Nov-14 16:31N 39°33' E 002°38'0 0.0
2014-Nov-14 15:31N 39°33' E 002°38'5 5.0
2014-Nov-14 14:33N 39°29' E 002°37'19 9.7
2014-Nov-14 12:33N 39°14' E 002°21'1010.0
2014-Nov-14 11:33N 39°06' E 002°12'1010.3
2014-Nov-14 10:33N 38°59' E 002°03'1010.4
2014-Nov-14 09:33N 38°52' E 001°53'1110.6
2014-Nov-14 08:33N 38°44' E 001°44'6 6.4
2014-Nov-14 07:33N 38°40' E 001°38'2 1.4
2014-Nov-14 06:26N 38°38' E 001°38'1 0.3
2014-Nov-14 01:15N 38°38' E 001°36'12 5.5
2014-Nov-13 23:10N 38°30' E 001°25'3 5.4
2014-Nov-13 22:33N 38°30' E 001°21'  
Track history (hours):
 
Tides and Currents Weather Stations Pressure Air Temp Water Temp Dewpoint Dewpoint Depression Visibility Wind Speed Wind Dir Waves Ship Positions

Oceanographic research ship Vizconde de Eza (Spain)

Detailed information on ship capabilities available from University of Delaware's Ocean Information Center.

Last reported at 2014-Nov-23 22:33 UTC. Time now 2014-Nov-23 23:56 UTC.
Position N 38°23' E 001°26'.

Length 53 m; draft 6.2 m.

Type: Other ship. MMSI: 224582000.

Date/timePositionNaut miles runAvg speedWind from/ knotsBaromVisibWave heightAir tempDewpointWater temp
2014-Nov-23 22:33N 38°23' E 001°26'3 3.5
2014-Nov-23 21:33N 38°27' E 001°27'2 2.2
2014-Nov-23 20:33N 38°24' E 001°27'1 1.0
2014-Nov-23 19:18N 38°25' E 001°28'2 2.7
2014-Nov-23 18:33N 38°26' E 001°30'0 0.2
2014-Nov-23 16:31N 38°26' E 001°30'3 1.2
2014-Nov-23 14:30N 38°24' E 001°30'4 3.9
2014-Nov-23 13:33N 38°26' E 001°34'6 5.6
2014-Nov-23 12:33N 38°21' E 001°31'4 4.2
2014-Nov-23 11:30N 38°25' E 001°33'1 1.4
2014-Nov-23 10:32N 38°24' E 001°34'2 2.4
2014-Nov-23 09:33N 38°22' E 001°33'12 4.1
2014-Nov-23 06:29N 38°23' E 001°49'5 5.1
2014-Nov-23 05:33N 38°25' E 001°43'1 0.3
2014-Nov-23 00:33N 38°23' E 001°43'5 5.2
2014-Nov-22 23:33N 38°25' E 001°36'2 1.8
2014-Nov-22 22:33N 38°23' E 001°37'7 5.5
2014-Nov-22 21:15N 38°21' E 001°46'1 1.3
2014-Nov-22 20:33N 38°21' E 001°47'2 0.4
2014-Nov-22 16:25N 38°20' E 001°45'2 2.0
2014-Nov-22 15:33N 38°20' E 001°47'5 5.0
2014-Nov-22 14:33N 38°21' E 001°41'5 5.2
2014-Nov-22 13:33N 38°23' E 001°35'2 1.8
2014-Nov-22 12:33N 38°21' E 001°36'5 5.5
2014-Nov-22 11:33N 38°19' E 001°42'4 4.3
2014-Nov-22 10:33N 38°18' E 001°48'5 5.3
2014-Nov-22 09:33N 38°20' E 001°41'5 5.2
2014-Nov-22 08:33N 38°21' E 001°35'5 5.3
2014-Nov-22 07:32N 38°23' E 001°28'5 5.1
2014-Nov-22 06:33N 38°24' E 001°22'3 3.4
2014-Nov-22 05:33N 38°22' E 001°25'5 5.4
2014-Nov-22 04:33N 38°20' E 001°32'5 5.4
2014-Nov-22 03:33N 38°19' E 001°39'1 1.2
2014-Nov-22 02:33N 38°19' E 001°37'5 4.9
2014-Nov-22 01:33N 38°21' E 001°31'5 5.0
2014-Nov-22 00:33N 38°22' E 001°25'2 1.6
2014-Nov-21 23:33N 38°20' E 001°26'8 5.4
2014-Nov-21 22:09N 38°18' E 001°35'2 3.6
2014-Nov-21 21:33N 38°19' E 001°32'6 5.5
2014-Nov-21 20:33N 38°21' E 001°26'1 1.4
2014-Nov-21 19:33N 38°19' E 001°24'3 3.2
2014-Nov-21 18:33N 38°18' E 001°28'5 5.4
2014-Nov-21 17:33N 38°20' E 001°22'3 2.6
2014-Nov-21 16:32N 38°22' E 001°24'1 1.0
2014-Nov-21 15:33N 38°21' E 001°23'3 3.3
2014-Nov-21 14:33N 38°19' E 001°20'6 5.5
2014-Nov-21 13:33N 38°24' E 001°23'5 4.8
2014-Nov-21 12:32N 38°20' E 001°20'1 1.1
2014-Nov-21 11:33N 38°20' E 001°19'3 2.9
2014-Nov-21 10:32N 38°23' E 001°21'5 5.5
2014-Nov-21 09:33N 38°18' E 001°18'2 0.8
2014-Nov-21 07:18N 38°20' E 001°18'3 1.3
2014-Nov-21 05:19N 38°22' E 001°17'5 2.5
2014-Nov-21 03:27N 38°19' E 001°14'4 3.1
2014-Nov-21 02:07N 38°21' E 001°18'2 0.4
2014-Nov-20 21:31N 38°22' E 001°16'1 1.1
2014-Nov-20 20:28N 38°23' E 001°16'1 0.0
2014-Nov-19 22:05N 38°22' E 001°15'4 4.9
2014-Nov-19 21:20N 38°26' E 001°13'2 0.6
2014-Nov-19 18:17N 38°27' E 001°12'7 3.4
2014-Nov-19 16:14N 38°29' E 001°20'2 0.6
2014-Nov-19 13:24N 38°31' E 001°19'4 2.0
2014-Nov-19 11:33N 38°29' E 001°23'2 0.4
2014-Nov-19 06:22N 38°31' E 001°21'5 0.7
2014-Nov-18 22:21N 38°33' E 001°15'7 1.3
2014-Nov-18 16:33N 38°31' E 001°24'12 1.6
2014-Nov-18 09:19N 38°35' E 001°38'3 4.1
2014-Nov-18 08:32N 38°33' E 001°35'5 5.5
2014-Nov-18 07:33N 38°29' E 001°30'9 2.7
2014-Nov-18 04:08N 38°36' E 001°38'13 0.4
2014-Nov-16 15:33N 38°46' E 001°49'9 8.6
2014-Nov-16 14:33N 38°51' E 001°57'9 8.6
2014-Nov-16 13:33N 38°57' E 002°05'8 8.3
2014-Nov-16 12:33N 39°03' E 002°12'8 7.8
2014-Nov-16 11:34N 39°09' E 002°19'8 7.6
2014-Nov-16 10:33N 39°15' E 002°25'8 7.6
2014-Nov-16 09:33N 39°22' E 002°30'9 8.8
2014-Nov-16 08:33N 39°29' E 002°36'4 4.0
2014-Nov-16 07:28N 39°33' E 002°38'0 0.0
2014-Nov-16 06:31N 39°33' E 002°38'0 0.0
2014-Nov-16 05:31N 39°33' E 002°38'0 0.0
2014-Nov-16 04:31N 39°33' E 002°38'0 0.0
2014-Nov-16 03:31N 39°33' E 002°38'0 0.0
2014-Nov-16 02:31N 39°33' E 002°38'0 0.0
2014-Nov-16 01:31N 39°33' E 002°38'0 0.0
2014-Nov-16 00:31N 39°33' E 002°38'0 0.0
2014-Nov-15 23:31N 39°33' E 002°38'0 0.0
2014-Nov-15 22:31N 39°33' E 002°38'0 0.0
2014-Nov-15 21:31N 39°33' E 002°38'0 0.0
2014-Nov-15 20:31N 39°33' E 002°38'0 0.0
2014-Nov-15 19:31N 39°33' E 002°38'0 0.0
2014-Nov-15 18:31N 39°33' E 002°38'0 0.0
2014-Nov-15 17:31N 39°33' E 002°38'0 0.0
2014-Nov-15 16:31N 39°33' E 002°38'0 0.0
2014-Nov-15 15:31N 39°33' E 002°38'0 0.0
2014-Nov-15 14:31N 39°33' E 002°38'0 0.0
2014-Nov-15 13:31N 39°33' E 002°38'0 0.0
2014-Nov-15 12:31N 39°33' E 002°38'0 0.0
2014-Nov-15 11:31N 39°33' E 002°38'0 0.0
2014-Nov-15 10:31N 39°33' E 002°38'0 0.0
2014-Nov-15 09:31N 39°33' E 002°38'0 0.0
2014-Nov-15 08:31N 39°33' E 002°38'0 0.0
2014-Nov-15 07:22N 39°33' E 002°38'0 0.0
2014-Nov-15 06:28N 39°33' E 002°38'0 0.0
2014-Nov-15 05:31N 39°33' E 002°38'0 0.0
2014-Nov-15 04:31N 39°33' E 002°38'0 0.0
2014-Nov-15 03:31N 39°33' E 002°38'0 0.0
2014-Nov-15 02:31N 39°33' E 002°38'0 0.0
2014-Nov-15 01:31N 39°33' E 002°38'0 0.0
2014-Nov-15 00:31N 39°33' E 002°38'0 0.0
2014-Nov-14 23:31N 39°33' E 002°38'0 0.0
2014-Nov-14 22:31N 39°33' E 002°38'0 0.0
2014-Nov-14 21:31N 39°33' E 002°38'0 0.0
2014-Nov-14 20:31N 39°33' E 002°38'0 0.0
2014-Nov-14 19:31N 39°33' E 002°38'0 0.0
2014-Nov-14 18:31N 39°33' E 002°38'0 0.0
2014-Nov-14 17:31N 39°33' E 002°38'0 0.0
2014-Nov-14 16:31N 39°33' E 002°38'0 0.0
2014-Nov-14 15:31N 39°33' E 002°38'5 5.0
2014-Nov-14 14:33N 39°29' E 002°37'19 9.7
2014-Nov-14 12:33N 39°14' E 002°21'1010.0
2014-Nov-14 11:33N 39°06' E 002°12'1010.3
2014-Nov-14 10:33N 38°59' E 002°03'1010.4
2014-Nov-14 09:33N 38°52' E 001°53'1110.6
2014-Nov-14 08:33N 38°44' E 001°44'6 6.4
2014-Nov-14 07:33N 38°40' E 001°38'2 1.4
2014-Nov-14 06:26N 38°38' E 001°38'1 0.3
2014-Nov-14 01:15N 38°38' E 001°36'12 5.5
2014-Nov-13 23:10N 38°30' E 001°25'3 5.4
2014-Nov-13 22:33N 38°30' E 001°21'  

Dump ship's entire track history